sensor_id;sensor_type;location;lat;lon;timestamp;P1;durP1;ratioP1;P2;durP2;ratioP2
19291;SDS011;9779;51.756;7.450;2023-03-13T00:02:11;10.80;;;3.30;;
19291;SDS011;9779;51.756;7.450;2023-03-13T00:04:36;19.50;;;3.93;;
19291;SDS011;9779;51.756;7.450;2023-03-13T00:07:02;26.37;;;4.50;;
19291;SDS011;9779;51.756;7.450;2023-03-13T00:09:28;17.13;;;3.77;;
19291;SDS011;9779;51.756;7.450;2023-03-13T00:11:54;12.23;;;3.40;;
19291;SDS011;9779;51.756;7.450;2023-03-13T00:14:20;16.33;;;4.10;;
19291;SDS011;9779;51.756;7.450;2023-03-13T00:16:46;15.77;;;4.00;;
19291;SDS011;9779;51.756;7.450;2023-03-13T00:19:11;17.77;;;4.40;;
19291;SDS011;9779;51.756;7.450;2023-03-13T00:21:37;15.70;;;3.67;;
19291;SDS011;9779;51.756;7.450;2023-03-13T00:24:05;13.10;;;3.87;;
19291;SDS011;9779;51.756;7.450;2023-03-13T00:26:31;11.33;;;3.73;;
19291;SDS011;9779;51.756;7.450;2023-03-13T00:28:57;10.20;;;3.33;;
19291;SDS011;9779;51.756;7.450;2023-03-13T00:31:29;22.67;;;4.70;;
19291;SDS011;9779;51.756;7.450;2023-03-13T00:33:59;16.93;;;3.77;;
19291;SDS011;9779;51.756;7.450;2023-03-13T00:36:26;17.33;;;3.80;;
19291;SDS011;9779;51.756;7.450;2023-03-13T00:38:54;8.93;;;3.43;;
19291;SDS011;9779;51.756;7.450;2023-03-13T00:41:21;19.03;;;4.50;;
19291;SDS011;9779;51.756;7.450;2023-03-13T00:43:51;14.87;;;3.83;;
19291;SDS011;9779;51.756;7.450;2023-03-13T00:46:18;13.33;;;3.80;;
19291;SDS011;9779;51.756;7.450;2023-03-13T00:48:45;16.80;;;4.27;;
19291;SDS011;9779;51.756;7.450;2023-03-13T00:51:11;14.80;;;4.40;;
19291;SDS011;9779;51.756;7.450;2023-03-13T00:53:37;19.13;;;3.57;;
19291;SDS011;9779;51.756;7.450;2023-03-13T00:56:03;15.47;;;3.87;;
19291;SDS011;9779;51.756;7.450;2023-03-13T00:58:32;16.57;;;3.43;;
19291;SDS011;9779;51.756;7.450;2023-03-13T01:01:33;15.47;;;4.20;;
19291;SDS011;9779;51.756;7.450;2023-03-13T01:03:57;15.50;;;3.90;;
19291;SDS011;9779;51.756;7.450;2023-03-13T01:06:25;17.43;;;3.80;;
19291;SDS011;9779;51.756;7.450;2023-03-13T01:08:52;20.70;;;3.93;;
19291;SDS011;9779;51.756;7.450;2023-03-13T01:11:20;10.17;;;4.20;;
19291;SDS011;9779;51.756;7.450;2023-03-13T01:13:47;12.30;;;3.83;;
19291;SDS011;9779;51.756;7.450;2023-03-13T01:16:18;17.00;;;3.70;;
19291;SDS011;9779;51.756;7.450;2023-03-13T01:18:46;12.20;;;3.20;;
19291;SDS011;9779;51.756;7.450;2023-03-13T01:21:13;19.30;;;3.73;;
19291;SDS011;9779;51.756;7.450;2023-03-13T01:23:40;16.77;;;3.70;;
19291;SDS011;9779;51.756;7.450;2023-03-13T01:26:06;9.67;;;3.27;;
19291;SDS011;9779;51.756;7.450;2023-03-13T01:28:33;17.83;;;3.50;;
19291;SDS011;9779;51.756;7.450;2023-03-13T01:30:59;14.27;;;3.10;;
19291;SDS011;9779;51.756;7.450;2023-03-13T01:33:25;17.03;;;3.87;;
19291;SDS011;9779;51.756;7.450;2023-03-13T01:35:51;22.07;;;4.03;;
19291;SDS011;9779;51.756;7.450;2023-03-13T01:38:17;7.20;;;3.00;;
19291;SDS011;9779;51.756;7.450;2023-03-13T01:40:46;14.80;;;3.63;;
19291;SDS011;9779;51.756;7.450;2023-03-13T01:43:18;18.73;;;3.47;;
19291;SDS011;9779;51.756;7.450;2023-03-13T01:46:01;12.83;;;3.77;;
19291;SDS011;9779;51.756;7.450;2023-03-13T01:48:45;10.07;;;3.53;;
19291;SDS011;9779;51.756;7.450;2023-03-13T01:54:30;10.73;;;3.33;;
19291;SDS011;9779;51.756;7.450;2023-03-13T01:57:09;9.10;;;2.67;;
19291;SDS011;9779;51.756;7.450;2023-03-13T01:59:45;15.27;;;3.43;;
19291;SDS011;9779;51.756;7.450;2023-03-13T02:02:17;11.37;;;3.70;;
19291;SDS011;9779;51.756;7.450;2023-03-13T02:04:44;19.33;;;3.63;;
19291;SDS011;9779;51.756;7.450;2023-03-13T02:07:19;9.63;;;2.73;;
19291;SDS011;9779;51.756;7.450;2023-03-13T02:10:08;13.87;;;3.50;;
19291;SDS011;9779;51.756;7.450;2023-03-13T02:12:38;17.77;;;3.37;;
19291;SDS011;9779;51.756;7.450;2023-03-13T02:15:06;14.70;;;3.90;;
19291;SDS011;9779;51.756;7.450;2023-03-13T02:17:34;18.07;;;3.47;;
19291;SDS011;9779;51.756;7.450;2023-03-13T02:20:00;12.33;;;3.03;;
19291;SDS011;9779;51.756;7.450;2023-03-13T02:22:30;14.83;;;3.00;;
19291;SDS011;9779;51.756;7.450;2023-03-13T02:25:04;19.47;;;4.27;;
19291;SDS011;9779;51.756;7.450;2023-03-13T02:27:31;11.10;;;3.50;;
19291;SDS011;9779;51.756;7.450;2023-03-13T02:29:57;13.93;;;3.40;;
19291;SDS011;9779;51.756;7.450;2023-03-13T02:32:24;12.30;;;3.00;;
19291;SDS011;9779;51.756;7.450;2023-03-13T02:34:51;11.67;;;3.20;;
19291;SDS011;9779;51.756;7.450;2023-03-13T02:37:20;15.10;;;3.70;;
19291;SDS011;9779;51.756;7.450;2023-03-13T02:39:48;14.93;;;3.57;;
19291;SDS011;9779;51.756;7.450;2023-03-13T02:42:16;15.07;;;3.30;;
19291;SDS011;9779;51.756;7.450;2023-03-13T02:44:44;11.23;;;3.33;;
19291;SDS011;9779;51.756;7.450;2023-03-13T02:47:11;12.40;;;3.40;;
19291;SDS011;9779;51.756;7.450;2023-03-13T02:49:41;11.07;;;3.23;;
19291;SDS011;9779;51.756;7.450;2023-03-13T02:52:11;9.27;;;3.17;;
19291;SDS011;9779;51.756;7.450;2023-03-13T02:54:41;10.97;;;2.90;;
19291;SDS011;9779;51.756;7.450;2023-03-13T02:57:11;15.73;;;3.50;;
19291;SDS011;9779;51.756;7.450;2023-03-13T02:59:36;12.37;;;3.23;;
19291;SDS011;9779;51.756;7.450;2023-03-13T03:02:02;15.30;;;3.10;;
19291;SDS011;9779;51.756;7.450;2023-03-13T03:04:28;11.83;;;3.37;;
19291;SDS011;9779;51.756;7.450;2023-03-13T03:06:54;6.20;;;3.03;;
19291;SDS011;9779;51.756;7.450;2023-03-13T03:09:20;13.07;;;3.10;;
19291;SDS011;9779;51.756;7.450;2023-03-13T03:11:47;19.50;;;3.67;;
19291;SDS011;9779;51.756;7.450;2023-03-13T03:14:13;6.57;;;2.50;;
19291;SDS011;9779;51.756;7.450;2023-03-13T03:16:39;17.47;;;4.00;;
19291;SDS011;9779;51.756;7.450;2023-03-13T03:19:05;16.50;;;3.37;;
19291;SDS011;9779;51.756;7.450;2023-03-13T03:21:31;7.23;;;2.87;;
19291;SDS011;9779;51.756;7.450;2023-03-13T03:23:57;13.20;;;3.27;;
19291;SDS011;9779;51.756;7.450;2023-03-13T03:26:23;8.67;;;2.93;;
19291;SDS011;9779;51.756;7.450;2023-03-13T03:28:48;11.77;;;3.40;;
19291;SDS011;9779;51.756;7.450;2023-03-13T03:31:14;11.80;;;3.33;;
19291;SDS011;9779;51.756;7.450;2023-03-13T03:33:41;9.90;;;3.00;;
19291;SDS011;9779;51.756;7.450;2023-03-13T03:36:08;12.60;;;3.07;;
19291;SDS011;9779;51.756;7.450;2023-03-13T03:38:37;7.03;;;2.33;;
19291;SDS011;9779;51.756;7.450;2023-03-13T03:41:04;8.63;;;2.87;;
19291;SDS011;9779;51.756;7.450;2023-03-13T03:43:33;12.80;;;2.87;;
19291;SDS011;9779;51.756;7.450;2023-03-13T03:45:59;7.33;;;2.93;;
19291;SDS011;9779;51.756;7.450;2023-03-13T03:48:25;8.83;;;2.77;;
19291;SDS011;9779;51.756;7.450;2023-03-13T03:50:51;9.20;;;2.40;;
19291;SDS011;9779;51.756;7.450;2023-03-13T03:53:17;5.97;;;2.60;;
19291;SDS011;9779;51.756;7.450;2023-03-13T03:55:43;9.47;;;2.50;;
19291;SDS011;9779;51.756;7.450;2023-03-13T03:58:08;5.77;;;2.57;;
19291;SDS011;9779;51.756;7.450;2023-03-13T04:00:34;8.87;;;2.70;;
19291;SDS011;9779;51.756;7.450;2023-03-13T04:02:59;11.03;;;2.50;;
19291;SDS011;9779;51.756;7.450;2023-03-13T04:05:25;6.70;;;2.13;;
19291;SDS011;9779;51.756;7.450;2023-03-13T04:07:51;5.47;;;2.47;;
19291;SDS011;9779;51.756;7.450;2023-03-13T04:10:17;7.70;;;2.47;;
19291;SDS011;9779;51.756;7.450;2023-03-13T04:12:43;7.87;;;2.60;;
19291;SDS011;9779;51.756;7.450;2023-03-13T04:15:09;5.13;;;2.23;;
19291;SDS011;9779;51.756;7.450;2023-03-13T04:17:35;6.80;;;1.80;;
19291;SDS011;9779;51.756;7.450;2023-03-13T04:20:00;4.30;;;2.20;;
19291;SDS011;9779;51.756;7.450;2023-03-13T04:22:26;7.60;;;1.77;;
19291;SDS011;9779;51.756;7.450;2023-03-13T04:24:52;3.23;;;1.60;;
19291;SDS011;9779;51.756;7.450;2023-03-13T04:27:17;4.73;;;2.13;;
19291;SDS011;9779;51.756;7.450;2023-03-13T04:29:43;5.70;;;1.70;;
19291;SDS011;9779;51.756;7.450;2023-03-13T04:32:09;7.67;;;2.60;;
19291;SDS011;9779;51.756;7.450;2023-03-13T04:34:34;7.83;;;1.83;;
19291;SDS011;9779;51.756;7.450;2023-03-13T04:37:00;6.90;;;2.20;;
19291;SDS011;9779;51.756;7.450;2023-03-13T04:39:26;1.93;;;1.70;;
19291;SDS011;9779;51.756;7.450;2023-03-13T04:41:52;6.00;;;1.93;;
19291;SDS011;9779;51.756;7.450;2023-03-13T04:44:18;3.33;;;1.87;;
19291;SDS011;9779;51.756;7.450;2023-03-13T04:46:44;5.07;;;1.40;;
19291;SDS011;9779;51.756;7.450;2023-03-13T04:49:09;3.47;;;1.90;;
19291;SDS011;9779;51.756;7.450;2023-03-13T04:51:35;1.73;;;1.30;;
19291;SDS011;9779;51.756;7.450;2023-03-13T04:54:00;4.67;;;1.70;;
19291;SDS011;9779;51.756;7.450;2023-03-13T04:56:26;4.23;;;1.70;;
19291;SDS011;9779;51.756;7.450;2023-03-13T04:58:52;2.97;;;1.73;;
19291;SDS011;9779;51.756;7.450;2023-03-13T05:01:18;3.47;;;2.20;;
19291;SDS011;9779;51.756;7.450;2023-03-13T05:03:43;3.97;;;1.83;;
19291;SDS011;9779;51.756;7.450;2023-03-13T05:06:09;4.83;;;1.50;;
19291;SDS011;9779;51.756;7.450;2023-03-13T05:08:35;3.13;;;1.50;;
19291;SDS011;9779;51.756;7.450;2023-03-13T05:11:01;2.07;;;1.77;;
19291;SDS011;9779;51.756;7.450;2023-03-13T05:13:27;2.87;;;1.80;;
19291;SDS011;9779;51.756;7.450;2023-03-13T05:15:53;4.73;;;1.80;;
19291;SDS011;9779;51.756;7.450;2023-03-13T05:18:18;2.40;;;1.30;;
19291;SDS011;9779;51.756;7.450;2023-03-13T05:20:44;3.07;;;1.97;;
19291;SDS011;9779;51.756;7.450;2023-03-13T05:23:09;1.80;;;1.50;;
19291;SDS011;9779;51.756;7.450;2023-03-13T05:25:35;1.83;;;1.63;;
19291;SDS011;9779;51.756;7.450;2023-03-13T05:28:01;1.83;;;1.67;;
19291;SDS011;9779;51.756;7.450;2023-03-13T05:30:27;2.97;;;1.73;;
19291;SDS011;9779;51.756;7.450;2023-03-13T05:32:52;2.33;;;2.07;;
19291;SDS011;9779;51.756;7.450;2023-03-13T05:35:18;1.60;;;1.50;;
19291;SDS011;9779;51.756;7.450;2023-03-13T05:37:43;1.60;;;1.50;;
19291;SDS011;9779;51.756;7.450;2023-03-13T05:40:10;6.43;;;1.50;;
19291;SDS011;9779;51.756;7.450;2023-03-13T05:42:36;2.33;;;2.03;;
19291;SDS011;9779;51.756;7.450;2023-03-13T05:45:02;2.47;;;2.27;;
19291;SDS011;9779;51.756;7.450;2023-03-13T05:47:27;3.93;;;2.17;;
19291;SDS011;9779;51.756;7.450;2023-03-13T05:49:53;2.10;;;1.90;;
19291;SDS011;9779;51.756;7.450;2023-03-13T05:52:19;2.40;;;1.80;;
19291;SDS011;9779;51.756;7.450;2023-03-13T05:54:44;3.20;;;2.70;;
19291;SDS011;9779;51.756;7.450;2023-03-13T05:57:10;6.63;;;2.73;;
19291;SDS011;9779;51.756;7.450;2023-03-13T05:59:35;2.93;;;2.73;;
19291;SDS011;9779;51.756;7.450;2023-03-13T06:02:01;6.10;;;2.60;;
19291;SDS011;9779;51.756;7.450;2023-03-13T06:04:26;2.93;;;2.60;;
19291;SDS011;9779;51.756;7.450;2023-03-13T06:06:52;5.33;;;3.50;;
19291;SDS011;9779;51.756;7.450;2023-03-13T06:09:18;4.27;;;3.77;;
19291;SDS011;9779;51.756;7.450;2023-03-13T06:11:44;4.30;;;3.20;;
19291;SDS011;9779;51.756;7.450;2023-03-13T06:14:10;4.57;;;3.60;;
19291;SDS011;9779;51.756;7.450;2023-03-13T06:16:35;3.07;;;2.80;;
19291;SDS011;9779;51.756;7.450;2023-03-13T06:19:01;3.63;;;2.63;;
19291;SDS011;9779;51.756;7.450;2023-03-13T06:21:27;2.43;;;2.33;;
19291;SDS011;9779;51.756;7.450;2023-03-13T06:23:53;3.00;;;2.80;;
19291;SDS011;9779;51.756;7.450;2023-03-13T06:26:19;2.10;;;2.00;;
19291;SDS011;9779;51.756;7.450;2023-03-13T06:28:44;2.50;;;2.20;;
19291;SDS011;9779;51.756;7.450;2023-03-13T06:31:10;3.53;;;2.20;;
19291;SDS011;9779;51.756;7.450;2023-03-13T06:33:36;1.73;;;1.63;;
19291;SDS011;9779;51.756;7.450;2023-03-13T06:36:01;3.20;;;1.87;;
19291;SDS011;9779;51.756;7.450;2023-03-13T06:38:28;1.83;;;1.73;;
19291;SDS011;9779;51.756;7.450;2023-03-13T06:40:54;3.20;;;2.30;;
19291;SDS011;9779;51.756;7.450;2023-03-13T06:43:20;1.87;;;1.40;;
19291;SDS011;9779;51.756;7.450;2023-03-13T06:45:45;1.97;;;1.80;;
19291;SDS011;9779;51.756;7.450;2023-03-13T06:48:11;4.13;;;1.93;;
19291;SDS011;9779;51.756;7.450;2023-03-13T06:50:37;2.90;;;1.80;;
19291;SDS011;9779;51.756;7.450;2023-03-13T06:53:04;2.63;;;1.80;;
19291;SDS011;9779;51.756;7.450;2023-03-13T06:55:29;1.83;;;1.73;;
19291;SDS011;9779;51.756;7.450;2023-03-13T06:57:55;2.73;;;1.87;;
19291;SDS011;9779;51.756;7.450;2023-03-13T07:00:20;1.67;;;1.53;;
19291;SDS011;9779;51.756;7.450;2023-03-13T07:02:46;1.77;;;1.63;;
19291;SDS011;9779;51.756;7.450;2023-03-13T07:05:12;2.23;;;1.50;;
19291;SDS011;9779;51.756;7.450;2023-03-13T07:07:38;2.67;;;1.87;;
19291;SDS011;9779;51.756;7.450;2023-03-13T07:10:05;2.60;;;1.87;;
19291;SDS011;9779;51.756;7.450;2023-03-13T07:12:33;1.87;;;1.37;;
19291;SDS011;9779;51.756;7.450;2023-03-13T07:14:59;1.93;;;1.77;;
19291;SDS011;9779;51.756;7.450;2023-03-13T07:17:24;2.20;;;2.00;;
19291;SDS011;9779;51.756;7.450;2023-03-13T07:19:50;2.47;;;1.83;;
19291;SDS011;9779;51.756;7.450;2023-03-13T07:22:15;2.53;;;1.53;;
19291;SDS011;9779;51.756;7.450;2023-03-13T07:24:41;3.03;;;1.60;;
19291;SDS011;9779;51.756;7.450;2023-03-13T07:27:06;2.77;;;1.87;;
19291;SDS011;9779;51.756;7.450;2023-03-13T07:29:32;3.17;;;1.57;;
19291;SDS011;9779;51.756;7.450;2023-03-13T07:31:57;2.40;;;1.87;;
19291;SDS011;9779;51.756;7.450;2023-03-13T07:34:23;1.80;;;1.70;;
19291;SDS011;9779;51.756;7.450;2023-03-13T07:36:48;2.20;;;2.00;;
19291;SDS011;9779;51.756;7.450;2023-03-13T07:39:14;2.20;;;1.60;;
19291;SDS011;9779;51.756;7.450;2023-03-13T07:41:39;5.40;;;1.33;;
19291;SDS011;9779;51.756;7.450;2023-03-13T07:44:06;2.07;;;1.63;;
19291;SDS011;9779;51.756;7.450;2023-03-13T07:46:32;1.57;;;1.30;;
19291;SDS011;9779;51.756;7.450;2023-03-13T07:48:58;3.87;;;1.20;;
19291;SDS011;9779;51.756;7.450;2023-03-13T07:51:24;1.67;;;1.50;;
19291;SDS011;9779;51.756;7.450;2023-03-13T07:53:50;1.73;;;1.40;;
19291;SDS011;9779;51.756;7.450;2023-03-13T07:56:20;4.37;;;1.27;;
19291;SDS011;9779;51.756;7.450;2023-03-13T07:58:46;2.93;;;1.57;;
19291;SDS011;9779;51.756;7.450;2023-03-13T08:01:14;2.47;;;1.70;;
19291;SDS011;9779;51.756;7.450;2023-03-13T08:03:42;3.00;;;1.47;;
19291;SDS011;9779;51.756;7.450;2023-03-13T08:06:10;7.30;;;1.50;;
19291;SDS011;9779;51.756;7.450;2023-03-13T08:08:37;5.03;;;1.57;;
19291;SDS011;9779;51.756;7.450;2023-03-13T08:11:07;5.33;;;1.30;;
19291;SDS011;9779;51.756;7.450;2023-03-13T08:13:35;3.30;;;1.27;;
19291;SDS011;9779;51.756;7.450;2023-03-13T08:16:22;3.60;;;1.40;;
19291;SDS011;9779;51.756;7.450;2023-03-13T08:18:48;3.40;;;1.50;;
19291;SDS011;9779;51.756;7.450;2023-03-13T08:21:17;4.47;;;1.60;;
19291;SDS011;9779;51.756;7.450;2023-03-13T08:23:54;3.20;;;1.50;;
19291;SDS011;9779;51.756;7.450;2023-03-13T08:26:22;1.40;;;1.30;;
19291;SDS011;9779;51.756;7.450;2023-03-13T08:28:56;3.10;;;1.47;;
19291;SDS011;9779;51.756;7.450;2023-03-13T08:31:24;3.50;;;1.73;;
19291;SDS011;9779;51.756;7.450;2023-03-13T08:33:51;4.10;;;1.70;;
19291;SDS011;9779;51.756;7.450;2023-03-13T08:36:18;6.20;;;1.63;;
19291;SDS011;9779;51.756;7.450;2023-03-13T08:38:47;5.60;;;2.10;;
19291;SDS011;9779;51.756;7.450;2023-03-13T08:41:13;3.07;;;1.77;;
19291;SDS011;9779;51.756;7.450;2023-03-13T08:43:41;9.77;;;1.77;;
19291;SDS011;9779;51.756;7.450;2023-03-13T08:46:07;4.20;;;1.70;;
19291;SDS011;9779;51.756;7.450;2023-03-13T08:48:33;2.20;;;1.43;;
19291;SDS011;9779;51.756;7.450;2023-03-13T08:51:02;1.80;;;1.70;;
19291;SDS011;9779;51.756;7.450;2023-03-13T08:53:30;6.20;;;1.70;;
19291;SDS011;9779;51.756;7.450;2023-03-13T08:55:56;2.80;;;1.67;;
19291;SDS011;9779;51.756;7.450;2023-03-13T08:58:22;5.03;;;1.50;;
19291;SDS011;9779;51.756;7.450;2023-03-13T09:00:48;4.10;;;1.60;;
19291;SDS011;9779;51.756;7.450;2023-03-13T09:03:14;3.03;;;1.80;;
19291;SDS011;9779;51.756;7.450;2023-03-13T09:05:39;3.00;;;2.10;;
19291;SDS011;9779;51.756;7.450;2023-03-13T09:08:05;4.07;;;1.67;;
19291;SDS011;9779;51.756;7.450;2023-03-13T09:10:33;3.47;;;1.50;;
19291;SDS011;9779;51.756;7.450;2023-03-13T09:12:59;5.00;;;1.77;;
19291;SDS011;9779;51.756;7.450;2023-03-13T09:15:25;6.20;;;1.70;;
19291;SDS011;9779;51.756;7.450;2023-03-13T09:17:51;6.67;;;2.20;;
19291;SDS011;9779;51.756;7.450;2023-03-13T09:20:17;3.60;;;1.90;;
19291;SDS011;9779;51.756;7.450;2023-03-13T09:22:43;4.13;;;2.10;;
19291;SDS011;9779;51.756;7.450;2023-03-13T09:25:10;3.57;;;1.67;;
19291;SDS011;9779;51.756;7.450;2023-03-13T09:27:36;6.13;;;2.63;;
19291;SDS011;9779;51.756;7.450;2023-03-13T09:30:01;3.47;;;1.80;;
19291;SDS011;9779;51.756;7.450;2023-03-13T09:32:27;3.17;;;1.80;;
19291;SDS011;9779;51.756;7.450;2023-03-13T09:34:53;4.43;;;2.07;;
19291;SDS011;9779;51.756;7.450;2023-03-13T09:37:19;5.33;;;1.73;;
19291;SDS011;9779;51.756;7.450;2023-03-13T09:39:45;8.17;;;1.70;;
19291;SDS011;9779;51.756;7.450;2023-03-13T09:44:51;6.87;;;1.90;;
19291;SDS011;9779;51.756;7.450;2023-03-13T09:47:29;5.13;;;1.50;;
19291;SDS011;9779;51.756;7.450;2023-03-13T09:50:24;1.90;;;1.80;;
19291;SDS011;9779;51.756;7.450;2023-03-13T09:52:54;8.30;;;2.07;;
19291;SDS011;9779;51.756;7.450;2023-03-13T09:55:30;3.53;;;1.97;;
19291;SDS011;9779;51.756;7.450;2023-03-13T09:57:59;5.53;;;1.77;;
19291;SDS011;9779;51.756;7.450;2023-03-13T10:00:33;2.30;;;1.30;;
19291;SDS011;9779;51.756;7.450;2023-03-13T10:05:35;4.10;;;1.90;;
19291;SDS011;9779;51.756;7.450;2023-03-13T10:08:09;4.27;;;2.00;;
19291;SDS011;9779;51.756;7.450;2023-03-13T10:10:47;5.00;;;1.63;;
19291;SDS011;9779;51.756;7.450;2023-03-13T10:13:26;3.23;;;1.50;;
19291;SDS011;9779;51.756;7.450;2023-03-13T10:16:00;5.67;;;1.70;;
19291;SDS011;9779;51.756;7.450;2023-03-13T10:18:30;4.13;;;1.47;;
19291;SDS011;9779;51.756;7.450;2023-03-13T10:21:00;3.17;;;1.43;;
19291;SDS011;9779;51.756;7.450;2023-03-13T10:23:42;4.00;;;1.63;;
19291;SDS011;9779;51.756;7.450;2023-03-13T10:26:24;4.47;;;1.40;;
19291;SDS011;9779;51.756;7.450;2023-03-13T10:28:54;4.70;;;1.70;;
19291;SDS011;9779;51.756;7.450;2023-03-13T10:31:24;3.43;;;1.67;;
19291;SDS011;9779;51.756;7.450;2023-03-13T10:34:05;2.20;;;1.80;;
19291;SDS011;9779;51.756;7.450;2023-03-13T10:36:38;3.27;;;1.63;;
19291;SDS011;9779;51.756;7.450;2023-03-13T10:39:07;5.00;;;1.87;;
19291;SDS011;9779;51.756;7.450;2023-03-13T10:41:41;5.57;;;1.43;;
19291;SDS011;9779;51.756;7.450;2023-03-13T10:44:23;3.63;;;1.30;;
19291;SDS011;9779;51.756;7.450;2023-03-13T10:46:58;6.30;;;1.67;;
19291;SDS011;9779;51.756;7.450;2023-03-13T10:49:26;1.30;;;1.20;;
19291;SDS011;9779;51.756;7.450;2023-03-13T10:51:54;4.20;;;1.50;;
19291;SDS011;9779;51.756;7.450;2023-03-13T10:59:50;3.77;;;1.50;;
19291;SDS011;9779;51.756;7.450;2023-03-13T11:04:54;6.17;;;1.43;;
19291;SDS011;9779;51.756;7.450;2023-03-13T11:09:58;2.17;;;1.30;;
19291;SDS011;9779;51.756;7.450;2023-03-13T11:12:25;5.17;;;1.83;;
19291;SDS011;9779;51.756;7.450;2023-03-13T11:15:00;2.60;;;1.53;;
19291;SDS011;9779;51.756;7.450;2023-03-13T11:17:35;3.87;;;1.43;;
19291;SDS011;9779;51.756;7.450;2023-03-13T11:20:15;1.40;;;1.00;;
19291;SDS011;9779;51.756;7.450;2023-03-13T11:27:54;2.10;;;1.50;;
19291;SDS011;9779;51.756;7.450;2023-03-13T11:30:53;5.33;;;1.20;;
19291;SDS011;9779;51.756;7.450;2023-03-13T11:33:34;2.93;;;1.23;;
19291;SDS011;9779;51.756;7.450;2023-03-13T11:38:41;1.73;;;1.20;;
19291;SDS011;9779;51.756;7.450;2023-03-13T11:55:00;2.60;;;1.13;;
19291;SDS011;9779;51.756;7.450;2023-03-13T11:57:51;1.20;;;1.00;;
19291;SDS011;9779;51.756;7.450;2023-03-13T12:01:22;1.23;;;1.10;;
19291;SDS011;9779;51.756;7.450;2023-03-13T12:03:55;1.60;;;0.80;;
19291;SDS011;9779;51.756;7.450;2023-03-13T12:09:05;1.63;;;0.93;;
19291;SDS011;9779;51.756;7.450;2023-03-13T12:14:38;0.90;;;0.67;;
19291;SDS011;9779;51.756;7.450;2023-03-13T12:22:52;0.57;;;0.50;;
19291;SDS011;9779;51.756;7.450;2023-03-13T12:25:49;1.70;;;0.80;;
19291;SDS011;9779;51.756;7.450;2023-03-13T12:36:11;0.43;;;0.43;;
19291;SDS011;9779;51.756;7.450;2023-03-13T12:38:46;3.03;;;0.70;;
19291;SDS011;9779;51.756;7.450;2023-03-13T12:41:22;0.60;;;0.53;;
19291;SDS011;9779;51.756;7.450;2023-03-13T12:43:56;0.83;;;0.50;;
19291;SDS011;9779;51.756;7.450;2023-03-13T12:46:33;1.10;;;0.60;;
19291;SDS011;9779;51.756;7.450;2023-03-13T12:57:08;4.23;;;0.70;;
19291;SDS011;9779;51.756;7.450;2023-03-13T12:59:40;0.77;;;0.47;;
19291;SDS011;9779;51.756;7.450;2023-03-13T13:02:19;0.50;;;0.50;;
19291;SDS011;9779;51.756;7.450;2023-03-13T13:04:47;1.07;;;0.63;;
19291;SDS011;9779;51.756;7.450;2023-03-13T13:07:22;0.90;;;0.70;;
19291;SDS011;9779;51.756;7.450;2023-03-13T13:12:33;0.60;;;0.53;;
19291;SDS011;9779;51.756;7.450;2023-03-13T13:15:26;0.83;;;0.50;;
19291;SDS011;9779;51.756;7.450;2023-03-13T13:18:00;4.17;;;0.60;;
19291;SDS011;9779;51.756;7.450;2023-03-13T13:20:46;3.37;;;0.60;;
19291;SDS011;9779;51.756;7.450;2023-03-13T13:23:38;0.77;;;0.50;;
19291;SDS011;9779;51.756;7.450;2023-03-13T13:28:53;1.80;;;0.60;;
19291;SDS011;9779;51.756;7.450;2023-03-13T13:36:52;0.83;;;0.60;;
19291;SDS011;9779;51.756;7.450;2023-03-13T13:39:29;1.33;;;0.60;;
19291;SDS011;9779;51.756;7.450;2023-03-13T13:41:57;1.63;;;0.60;;
19291;SDS011;9779;51.756;7.450;2023-03-13T13:44:23;0.87;;;0.50;;
19291;SDS011;9779;51.756;7.450;2023-03-13T13:46:51;0.80;;;0.77;;
19291;SDS011;9779;51.756;7.450;2023-03-13T13:49:19;0.60;;;0.50;;
19291;SDS011;9779;51.756;7.450;2023-03-13T13:54:32;0.87;;;0.50;;
19291;SDS011;9779;51.756;7.450;2023-03-13T13:57:18;0.77;;;0.60;;
19291;SDS011;9779;51.756;7.450;2023-03-13T13:59:50;1.00;;;0.70;;
19291;SDS011;9779;51.756;7.450;2023-03-13T14:02:21;0.90;;;0.40;;
19291;SDS011;9779;51.756;7.450;2023-03-13T14:05:06;1.37;;;0.70;;
19291;SDS011;9779;51.756;7.450;2023-03-13T14:10:06;0.73;;;0.50;;
19291;SDS011;9779;51.756;7.450;2023-03-13T14:12:51;0.50;;;0.50;;
19291;SDS011;9779;51.756;7.450;2023-03-13T14:15:19;3.53;;;0.73;;
19291;SDS011;9779;51.756;7.450;2023-03-13T14:17:48;0.60;;;0.50;;
19291;SDS011;9779;51.756;7.450;2023-03-13T14:20:26;1.23;;;0.90;;
19291;SDS011;9779;51.756;7.450;2023-03-13T14:22:52;2.10;;;0.60;;
19291;SDS011;9779;51.756;7.450;2023-03-13T14:25:20;1.20;;;0.70;;
19291;SDS011;9779;51.756;7.450;2023-03-13T14:27:47;4.70;;;1.03;;
19291;SDS011;9779;51.756;7.450;2023-03-13T14:30:15;0.67;;;0.50;;
19291;SDS011;9779;51.756;7.450;2023-03-13T14:32:42;1.03;;;0.60;;
19291;SDS011;9779;51.756;7.450;2023-03-13T14:35:09;0.90;;;0.63;;
19291;SDS011;9779;51.756;7.450;2023-03-13T14:37:36;0.93;;;0.60;;
19291;SDS011;9779;51.756;7.450;2023-03-13T14:40:18;1.73;;;0.60;;
19291;SDS011;9779;51.756;7.450;2023-03-13T14:42:57;4.00;;;0.70;;
19291;SDS011;9779;51.756;7.450;2023-03-13T14:45:28;0.90;;;0.60;;
19291;SDS011;9779;51.756;7.450;2023-03-13T14:51:00;1.50;;;0.57;;
19291;SDS011;9779;51.756;7.450;2023-03-13T14:53:33;1.63;;;0.67;;
19291;SDS011;9779;51.756;7.450;2023-03-13T14:56:15;0.80;;;0.50;;
19291;SDS011;9779;51.756;7.450;2023-03-13T14:58:43;0.67;;;0.60;;
19291;SDS011;9779;51.756;7.450;2023-03-13T15:01:25;2.47;;;0.73;;
19291;SDS011;9779;51.756;7.450;2023-03-13T15:03:54;1.37;;;0.50;;
19291;SDS011;9779;51.756;7.450;2023-03-13T15:06:21;1.40;;;0.73;;
19291;SDS011;9779;51.756;7.450;2023-03-13T15:09:13;1.13;;;0.70;;
19291;SDS011;9779;51.756;7.450;2023-03-13T15:11:42;1.00;;;0.50;;
19291;SDS011;9779;51.756;7.450;2023-03-13T15:14:31;4.07;;;0.60;;
19291;SDS011;9779;51.756;7.450;2023-03-13T15:17:00;1.13;;;0.50;;
19291;SDS011;9779;51.756;7.450;2023-03-13T15:19:28;6.07;;;0.60;;
19291;SDS011;9779;51.756;7.450;2023-03-13T15:21:55;1.83;;;0.60;;
19291;SDS011;9779;51.756;7.450;2023-03-13T15:24:20;1.43;;;0.60;;
19291;SDS011;9779;51.756;7.450;2023-03-13T15:26:46;3.13;;;0.50;;
19291;SDS011;9779;51.756;7.450;2023-03-13T15:29:11;0.77;;;0.40;;
19291;SDS011;9779;51.756;7.450;2023-03-13T15:31:37;0.90;;;0.70;;
19291;SDS011;9779;51.756;7.450;2023-03-13T15:34:05;1.47;;;0.60;;
19291;SDS011;9779;51.756;7.450;2023-03-13T15:36:34;3.83;;;0.57;;
19291;SDS011;9779;51.756;7.450;2023-03-13T15:39:00;0.70;;;0.70;;
19291;SDS011;9779;51.756;7.450;2023-03-13T15:41:26;1.07;;;0.73;;
19291;SDS011;9779;51.756;7.450;2023-03-13T15:43:51;2.77;;;0.80;;
19291;SDS011;9779;51.756;7.450;2023-03-13T15:46:19;0.80;;;0.60;;
19291;SDS011;9779;51.756;7.450;2023-03-13T15:48:45;3.33;;;0.83;;
19291;SDS011;9779;51.756;7.450;2023-03-13T15:51:12;1.47;;;1.00;;
19291;SDS011;9779;51.756;7.450;2023-03-13T15:53:40;2.63;;;0.80;;
19291;SDS011;9779;51.756;7.450;2023-03-13T15:58:46;0.97;;;0.60;;
19291;SDS011;9779;51.756;7.450;2023-03-13T16:01:13;1.17;;;0.70;;
19291;SDS011;9779;51.756;7.450;2023-03-13T16:03:40;1.53;;;0.70;;
19291;SDS011;9779;51.756;7.450;2023-03-13T16:06:19;1.37;;;0.70;;
19291;SDS011;9779;51.756;7.450;2023-03-13T16:08:54;2.10;;;0.80;;
19291;SDS011;9779;51.756;7.450;2023-03-13T16:11:20;2.40;;;0.93;;
19291;SDS011;9779;51.756;7.450;2023-03-13T16:13:46;5.77;;;0.90;;
19291;SDS011;9779;51.756;7.450;2023-03-13T16:16:24;10.03;;;1.30;;
19291;SDS011;9779;51.756;7.450;2023-03-13T16:18:55;1.60;;;0.80;;
19291;SDS011;9779;51.756;7.450;2023-03-13T16:21:24;2.07;;;0.90;;
19291;SDS011;9779;51.756;7.450;2023-03-13T16:23:54;1.13;;;0.70;;
19291;SDS011;9779;51.756;7.450;2023-03-13T16:26:21;1.57;;;0.70;;
19291;SDS011;9779;51.756;7.450;2023-03-13T16:28:52;3.53;;;0.80;;
19291;SDS011;9779;51.756;7.450;2023-03-13T16:31:29;3.47;;;0.93;;
19291;SDS011;9779;51.756;7.450;2023-03-13T16:33:56;1.37;;;0.97;;
19291;SDS011;9779;51.756;7.450;2023-03-13T16:36:27;4.03;;;1.00;;
19291;SDS011;9779;51.756;7.450;2023-03-13T16:38:55;2.27;;;1.00;;
19291;SDS011;9779;51.756;7.450;2023-03-13T16:41:22;2.23;;;0.90;;